sensor_id;sensor_type;location;lat;lon;timestamp;pressure;altitude;pressure_sealevel;temperature
69420;BMP280;56612;52.030;113.524;2023-02-15T00:00:47;93787.09;;;-14.68
69420;BMP280;56612;52.030;113.524;2023-02-15T00:03:50;93780.34;;;-14.65
69420;BMP280;56612;52.030;113.524;2023-02-15T00:06:53;93786.16;;;-14.65
69420;BMP280;56612;52.030;113.524;2023-02-15T00:09:57;93786.94;;;-14.58
69420;BMP280;56612;52.030;113.524;2023-02-15T00:13:02;93786.56;;;-14.46
69420;BMP280;56612;52.030;113.524;2023-02-15T00:16:07;93791.00;;;-14.46
69420;BMP280;56612;52.030;113.524;2023-02-15T00:19:13;93783.69;;;-14.53
69420;BMP280;56612;52.030;113.524;2023-02-15T00:22:17;93785.22;;;-14.67
69420;BMP280;56612;52.030;113.524;2023-02-15T00:25:21;93788.00;;;-14.71
69420;BMP280;56612;52.030;113.524;2023-02-15T00:28:24;93778.88;;;-14.46
69420;BMP280;56612;52.030;113.524;2023-02-15T00:31:29;93784.53;;;-14.68
69420;BMP280;56612;52.030;113.524;2023-02-15T00:34:33;93786.09;;;-14.76
69420;BMP280;56612;52.030;113.524;2023-02-15T00:37:37;93789.31;;;-14.81
69420;BMP280;56612;52.030;113.524;2023-02-15T00:40:40;93788.91;;;-14.74
69420;BMP280;56612;52.030;113.524;2023-02-15T00:43:44;93783.44;;;-14.55
69420;BMP280;56612;52.030;113.524;2023-02-15T00:46:48;93803.13;;;-14.15
69420;BMP280;56612;52.030;113.524;2023-02-15T00:49:52;93792.50;;;-13.91
69420;BMP280;56612;52.030;113.524;2023-02-15T00:52:56;93785.41;;;-13.65
69420;BMP280;56612;52.030;113.524;2023-02-15T00:56:00;93799.97;;;-13.45
69420;BMP280;56612;52.030;113.524;2023-02-15T00:59:04;93792.81;;;-13.07
69420;BMP280;56612;52.030;113.524;2023-02-15T01:02:07;93788.91;;;-12.69
69420;BMP280;56612;52.030;113.524;2023-02-15T01:05:11;93795.00;;;-12.38
69420;BMP280;56612;52.030;113.524;2023-02-15T01:08:16;93792.63;;;-12.25
69420;BMP280;56612;52.030;113.524;2023-02-15T01:11:21;93798.19;;;-11.93
69420;BMP280;56612;52.030;113.524;2023-02-15T01:14:26;93794.41;;;-11.75
69420;BMP280;56612;52.030;113.524;2023-02-15T01:17:31;93798.78;;;-11.47
69420;BMP280;56612;52.030;113.524;2023-02-15T01:20:39;93797.94;;;-11.20
69420;BMP280;56612;52.030;113.524;2023-02-15T01:23:45;93806.19;;;-10.91
69420;BMP280;56612;52.030;113.524;2023-02-15T01:26:48;93798.91;;;-10.87
69420;BMP280;56612;52.030;113.524;2023-02-15T01:29:52;93797.41;;;-10.71
69420;BMP280;56612;52.030;113.524;2023-02-15T01:32:57;93794.88;;;-10.47
69420;BMP280;56612;52.030;113.524;2023-02-15T01:36:01;93803.38;;;-10.27
69420;BMP280;56612;52.030;113.524;2023-02-15T01:39:06;93789.00;;;-10.47
69420;BMP280;56612;52.030;113.524;2023-02-15T01:42:11;93805.47;;;-10.26
69420;BMP280;56612;52.030;113.524;2023-02-15T01:45:26;93802.38;;;-9.94
69420;BMP280;56612;52.030;113.524;2023-02-15T01:48:30;93798.56;;;-9.50
69420;BMP280;56612;52.030;113.524;2023-02-15T01:51:37;93798.34;;;-8.95
69420;BMP280;56612;52.030;113.524;2023-02-15T01:54:41;93795.66;;;-8.58
69420;BMP280;56612;52.030;113.524;2023-02-15T01:57:46;93784.03;;;-8.38
69420;BMP280;56612;52.030;113.524;2023-02-15T02:00:50;93778.84;;;-8.64
69420;BMP280;56612;52.030;113.524;2023-02-15T02:07:06;93785.94;;;-7.98
69420;BMP280;56612;52.030;113.524;2023-02-15T02:10:12;93787.38;;;-7.16
69420;BMP280;56612;52.030;113.524;2023-02-15T02:13:17;93773.59;;;-7.45
69420;BMP280;56612;52.030;113.524;2023-02-15T02:16:29;93772.66;;;-7.68
69420;BMP280;56612;52.030;113.524;2023-02-15T02:23:44;93767.06;;;-6.26
69420;BMP280;56612;52.030;113.524;2023-02-15T02:31:01;93773.28;;;-6.01
69420;BMP280;56612;52.030;113.524;2023-02-15T02:34:15;93764.44;;;-6.34
69420;BMP280;56612;52.030;113.524;2023-02-15T02:37:43;93759.22;;;-5.54
69420;BMP280;56612;52.030;113.524;2023-02-15T02:40:55;93776.69;;;-4.88
69420;BMP280;56612;52.030;113.524;2023-02-15T02:44:38;93767.06;;;-4.16
69420;BMP280;56612;52.030;113.524;2023-02-15T02:47:43;93774.34;;;-3.75
69420;BMP280;56612;52.030;113.524;2023-02-15T02:50:49;93760.97;;;-3.46
69420;BMP280;56612;52.030;113.524;2023-02-15T02:53:55;93758.00;;;-3.75
69420;BMP280;56612;52.030;113.524;2023-02-15T02:57:01;93756.59;;;-3.76
69420;BMP280;56612;52.030;113.524;2023-02-15T03:00:07;93748.97;;;-3.24
69420;BMP280;56612;52.030;113.524;2023-02-15T03:06:39;93749.97;;;-2.70
69420;BMP280;56612;52.030;113.524;2023-02-15T03:09:47;93739.66;;;-2.33
69420;BMP280;56612;52.030;113.524;2023-02-15T03:12:53;93736.50;;;-1.60
69420;BMP280;56612;52.030;113.524;2023-02-15T03:15:57;93731.97;;;-1.60
69420;BMP280;56612;52.030;113.524;2023-02-15T03:19:25;93723.63;;;-2.20
69420;BMP280;56612;52.030;113.524;2023-02-15T03:22:35;93717.03;;;-4.53
69420;BMP280;56612;52.030;113.524;2023-02-15T03:25:48;93721.84;;;-3.29
69420;BMP280;56612;52.030;113.524;2023-02-15T03:28:58;93727.63;;;-0.82
69420;BMP280;56612;52.030;113.524;2023-02-15T03:32:08;93720.94;;;0.14
69420;BMP280;56612;52.030;113.524;2023-02-15T03:35:14;93715.69;;;0.14
69420;BMP280;56612;52.030;113.524;2023-02-15T03:38:22;93720.03;;;0.62
69420;BMP280;56612;52.030;113.524;2023-02-15T03:41:33;93711.47;;;-2.08
69420;BMP280;56612;52.030;113.524;2023-02-15T03:48:30;93701.66;;;-5.27
69420;BMP280;56612;52.030;113.524;2023-02-15T03:51:37;93696.38;;;-5.73
69420;BMP280;56612;52.030;113.524;2023-02-15T03:54:43;93691.44;;;-6.00
69420;BMP280;56612;52.030;113.524;2023-02-15T03:57:50;93687.38;;;-6.16
69420;BMP280;56612;52.030;113.524;2023-02-15T04:04:46;93669.19;;;-6.16
69420;BMP280;56612;52.030;113.524;2023-02-15T04:07:50;93672.03;;;-6.43
69420;BMP280;56612;52.030;113.524;2023-02-15T04:10:55;93668.69;;;-6.51
69420;BMP280;56612;52.030;113.524;2023-02-15T04:14:00;93669.78;;;-6.38
69420;BMP280;56612;52.030;113.524;2023-02-15T04:17:24;93656.84;;;-6.23
69420;BMP280;56612;52.030;113.524;2023-02-15T04:20:27;93657.91;;;-6.19
69420;BMP280;56612;52.030;113.524;2023-02-15T04:23:48;93648.06;;;-6.05
69420;BMP280;56612;52.030;113.524;2023-02-15T04:27:10;93653.63;;;-6.01
69420;BMP280;56612;52.030;113.524;2023-02-15T04:30:15;93642.22;;;-5.82
69420;BMP280;56612;52.030;113.524;2023-02-15T04:33:18;93644.47;;;-5.87
69420;BMP280;56612;52.030;113.524;2023-02-15T04:36:22;93639.56;;;-5.98
69420;BMP280;56612;52.030;113.524;2023-02-15T04:39:25;93632.66;;;-5.88
69420;BMP280;56612;52.030;113.524;2023-02-15T04:42:28;93629.53;;;-5.78
69420;BMP280;56612;52.030;113.524;2023-02-15T04:45:32;93622.09;;;-5.82
69420;BMP280;56612;52.030;113.524;2023-02-15T04:48:35;93616.91;;;-5.67
69420;BMP280;56612;52.030;113.524;2023-02-15T04:51:39;93624.38;;;-5.55
69420;BMP280;56612;52.030;113.524;2023-02-15T04:54:42;93617.25;;;-5.55
69420;BMP280;56612;52.030;113.524;2023-02-15T04:57:46;93608.91;;;-5.46
69420;BMP280;56612;52.030;113.524;2023-02-15T05:00:50;93603.53;;;-5.25
69420;BMP280;56612;52.030;113.524;2023-02-15T05:03:54;93603.16;;;-5.14
69420;BMP280;56612;52.030;113.524;2023-02-15T05:06:57;93595.13;;;-4.93
69420;BMP280;56612;52.030;113.524;2023-02-15T05:10:01;93594.78;;;-4.89
69420;BMP280;56612;52.030;113.524;2023-02-15T05:13:05;93585.88;;;-4.79
69420;BMP280;56612;52.030;113.524;2023-02-15T05:16:08;93591.34;;;-4.52
69420;BMP280;56612;52.030;113.524;2023-02-15T05:19:12;93580.97;;;-4.27
69420;BMP280;56612;52.030;113.524;2023-02-15T05:22:16;93576.06;;;-4.22
69420;BMP280;56612;52.030;113.524;2023-02-15T05:25:19;93562.06;;;-4.10
69420;BMP280;56612;52.030;113.524;2023-02-15T05:28:40;93568.28;;;-3.80
69420;BMP280;56612;52.030;113.524;2023-02-15T05:31:43;93563.34;;;-3.69
69420;BMP280;56612;52.030;113.524;2023-02-15T05:34:50;93559.84;;;-3.46
69420;BMP280;56612;52.030;113.524;2023-02-15T05:37:54;93548.41;;;-3.33
69420;BMP280;56612;52.030;113.524;2023-02-15T05:40:57;93552.03;;;-3.11
69420;BMP280;56612;52.030;113.524;2023-02-15T05:44:01;93544.31;;;-3.09
69420;BMP280;56612;52.030;113.524;2023-02-15T05:47:05;93541.34;;;-3.23
69420;BMP280;56612;52.030;113.524;2023-02-15T05:50:10;93538.25;;;-3.29
69420;BMP280;56612;52.030;113.524;2023-02-15T05:53:14;93527.13;;;-3.13
69420;BMP280;56612;52.030;113.524;2023-02-15T05:56:18;93525.00;;;-2.79
69420;BMP280;56612;52.030;113.524;2023-02-15T05:59:22;93527.53;;;-2.35
69420;BMP280;56612;52.030;113.524;2023-02-15T06:02:26;93527.38;;;-1.91
69420;BMP280;56612;52.030;113.524;2023-02-15T06:05:29;93536.63;;;2.47
69420;BMP280;56612;52.030;113.524;2023-02-15T06:08:33;93531.09;;;6.00
69420;BMP280;56612;52.030;113.524;2023-02-15T06:11:36;93540.28;;;9.46
69420;BMP280;56612;52.030;113.524;2023-02-15T06:14:40;93539.19;;;10.73
69420;BMP280;56612;52.030;113.524;2023-02-15T06:17:43;93540.28;;;12.60
69420;BMP280;56612;52.030;113.524;2023-02-15T06:20:47;93531.50;;;13.14
69420;BMP280;56612;52.030;113.524;2023-02-15T06:23:52;93530.09;;;11.60
69420;BMP280;56612;52.030;113.524;2023-02-15T06:26:55;93522.91;;;7.21
69420;BMP280;56612;52.030;113.524;2023-02-15T06:29:59;93517.31;;;5.70
69420;BMP280;56612;52.030;113.524;2023-02-15T06:33:03;93506.88;;;4.48
69420;BMP280;56612;52.030;113.524;2023-02-15T06:36:07;93525.13;;;8.10
69420;BMP280;56612;52.030;113.524;2023-02-15T06:39:11;93530.94;;;10.31
69420;BMP280;56612;52.030;113.524;2023-02-15T06:42:15;93512.81;;;9.42
69420;BMP280;56612;52.030;113.524;2023-02-15T06:45:20;93511.78;;;5.98
69420;BMP280;56612;52.030;113.524;2023-02-15T06:48:24;93501.53;;;4.33
69420;BMP280;56612;52.030;113.524;2023-02-15T06:51:28;93506.41;;;3.81
69420;BMP280;56612;52.030;113.524;2023-02-15T06:54:32;93518.81;;;7.38
69420;BMP280;56612;52.030;113.524;2023-02-15T06:57:35;93510.03;;;10.21
69420;BMP280;56612;52.030;113.524;2023-02-15T07:00:38;93521.88;;;11.92
69420;BMP280;56612;52.030;113.524;2023-02-15T07:03:43;93512.94;;;11.76
69420;BMP280;56612;52.030;113.524;2023-02-15T07:06:46;93500.31;;;11.82
69420;BMP280;56612;52.030;113.524;2023-02-15T07:09:50;93506.09;;;12.63
69420;BMP280;56612;52.030;113.524;2023-02-15T07:12:54;93502.16;;;10.94
69420;BMP280;56612;52.030;113.524;2023-02-15T07:15:58;93482.53;;;8.10
69420;BMP280;56612;52.030;113.524;2023-02-15T07:19:02;93482.06;;;6.55
69420;BMP280;56612;52.030;113.524;2023-02-15T07:22:05;93475.28;;;5.81
69420;BMP280;56612;52.030;113.524;2023-02-15T07:25:10;93485.13;;;7.05
69420;BMP280;56612;52.030;113.524;2023-02-15T07:28:14;93481.38;;;8.39
69420;BMP280;56612;52.030;113.524;2023-02-15T07:31:19;93487.94;;;10.51
69420;BMP280;56612;52.030;113.524;2023-02-15T07:34:22;93494.47;;;12.44
69420;BMP280;56612;52.030;113.524;2023-02-15T07:37:26;93492.44;;;15.43
69420;BMP280;56612;52.030;113.524;2023-02-15T07:40:29;93499.38;;;17.11
69420;BMP280;56612;52.030;113.524;2023-02-15T07:43:35;93492.53;;;17.26
69420;BMP280;56612;52.030;113.524;2023-02-15T07:46:40;93497.69;;;16.43
69420;BMP280;56612;52.030;113.524;2023-02-15T07:49:44;93497.81;;;15.52
69420;BMP280;56612;52.030;113.524;2023-02-15T07:52:47;93491.63;;;14.74
69420;BMP280;56612;52.030;113.524;2023-02-15T07:55:51;93497.03;;;16.34
69420;BMP280;56612;52.030;113.524;2023-02-15T07:58:55;93488.13;;;16.72
69420;BMP280;56612;52.030;113.524;2023-02-15T08:02:00;93494.34;;;16.32
69420;BMP280;56612;52.030;113.524;2023-02-15T08:05:04;93489.06;;;15.59
69420;BMP280;56612;52.030;113.524;2023-02-15T08:08:09;93485.88;;;13.97
69420;BMP280;56612;52.030;113.524;2023-02-15T08:11:34;93491.03;;;14.98
69420;BMP280;56612;52.030;113.524;2023-02-15T08:14:42;93484.28;;;14.91
69420;BMP280;56612;52.030;113.524;2023-02-15T08:17:46;93484.34;;;15.35
69420;BMP280;56612;52.030;113.524;2023-02-15T08:20:49;93477.72;;;13.79
69420;BMP280;56612;52.030;113.524;2023-02-15T08:23:56;93467.88;;;9.58
69420;BMP280;56612;52.030;113.524;2023-02-15T08:27:00;93463.53;;;7.34
69420;BMP280;56612;52.030;113.524;2023-02-15T08:30:08;93456.66;;;5.45
69420;BMP280;56612;52.030;113.524;2023-02-15T08:33:11;93447.13;;;4.00
69420;BMP280;56612;52.030;113.524;2023-02-15T08:36:17;93448.34;;;3.01
69420;BMP280;56612;52.030;113.524;2023-02-15T08:39:24;93454.72;;;2.31
69420;BMP280;56612;52.030;113.524;2023-02-15T08:42:27;93444.09;;;1.81
69420;BMP280;56612;52.030;113.524;2023-02-15T08:45:34;93443.81;;;2.00
69420;BMP280;56612;52.030;113.524;2023-02-15T08:48:38;93440.03;;;4.64
69420;BMP280;56612;52.030;113.524;2023-02-15T08:51:42;93452.16;;;7.12
69420;BMP280;56612;52.030;113.524;2023-02-15T08:54:45;93452.69;;;8.85
69420;BMP280;56612;52.030;113.524;2023-02-15T08:57:49;93446.31;;;9.22
69420;BMP280;56612;52.030;113.524;2023-02-15T09:00:53;93446.69;;;9.10
69420;BMP280;56612;52.030;113.524;2023-02-15T09:03:59;93438.84;;;8.90
69420;BMP280;56612;52.030;113.524;2023-02-15T09:07:03;93447.38;;;7.91
69420;BMP280;56612;52.030;113.524;2023-02-15T09:10:07;93440.16;;;7.11
69420;BMP280;56612;52.030;113.524;2023-02-15T09:13:13;93442.03;;;6.13
69420;BMP280;56612;52.030;113.524;2023-02-15T09:16:15;93437.16;;;5.72
69420;BMP280;56612;52.030;113.524;2023-02-15T09:19:23;93439.16;;;5.38
69420;BMP280;56612;52.030;113.524;2023-02-15T09:22:27;93431.53;;;4.36
69420;BMP280;56612;52.030;113.524;2023-02-15T09:25:34;93438.00;;;2.52
69420;BMP280;56612;52.030;113.524;2023-02-15T09:28:37;93429.16;;;1.36
69420;BMP280;56612;52.030;113.524;2023-02-15T09:31:46;93424.84;;;0.73
69420;BMP280;56612;52.030;113.524;2023-02-15T09:34:50;93427.84;;;0.22
69420;BMP280;56612;52.030;113.524;2023-02-15T09:37:54;93427.53;;;-0.15
69420;BMP280;56612;52.030;113.524;2023-02-15T10:08:06;93441.22;;;-2.25
69420;BMP280;56612;52.030;113.524;2023-02-15T10:11:15;93449.13;;;-2.52
69420;BMP280;56612;52.030;113.524;2023-02-15T10:27:47;93441.19;;;-3.26
69420;BMP280;56612;52.030;113.524;2023-02-15T10:30:53;93436.91;;;-3.31
69420;BMP280;56612;52.030;113.524;2023-02-15T10:34:18;93439.81;;;-3.44
69420;BMP280;56612;52.030;113.524;2023-02-15T10:40:57;93442.28;;;-3.81
69420;BMP280;56612;52.030;113.524;2023-02-15T10:44:18;93442.38;;;-3.88
69420;BMP280;56612;52.030;113.524;2023-02-15T11:06:57;93452.78;;;-4.81
69420;BMP280;56612;52.030;113.524;2023-02-15T11:13:47;93439.88;;;-5.03
69420;BMP280;56612;52.030;113.524;2023-02-15T11:16:57;93439.56;;;-5.15
69420;BMP280;56612;52.030;113.524;2023-02-15T11:20:17;93436.00;;;-5.27
69420;BMP280;56612;52.030;113.524;2023-02-15T11:23:24;93429.63;;;-5.49
69420;BMP280;56612;52.030;113.524;2023-02-15T11:26:41;93430.50;;;-5.54
69420;BMP280;56612;52.030;113.524;2023-02-15T11:33:16;93436.63;;;-5.67
69420;BMP280;56612;52.030;113.524;2023-02-15T11:36:25;93432.47;;;-5.78
69420;BMP280;56612;52.030;113.524;2023-02-15T11:39:30;93432.16;;;-5.90
69420;BMP280;56612;52.030;113.524;2023-02-15T11:42:35;93431.81;;;-5.94
69420;BMP280;56612;52.030;113.524;2023-02-15T11:45:41;93426.44;;;-5.96
69420;BMP280;56612;52.030;113.524;2023-02-15T11:48:46;93426.63;;;-6.09
69420;BMP280;56612;52.030;113.524;2023-02-15T11:51:52;93432.72;;;-6.14
69420;BMP280;56612;52.030;113.524;2023-02-15T11:54:57;93431.13;;;-6.17
69420;BMP280;56612;52.030;113.524;2023-02-15T11:58:11;93436.16;;;-6.27
69420;BMP280;56612;52.030;113.524;2023-02-15T12:04:35;93432.72;;;-6.45
69420;BMP280;56612;52.030;113.524;2023-02-15T12:07:51;93432.31;;;-6.49
69420;BMP280;56612;52.030;113.524;2023-02-15T12:11:09;93434.06;;;-6.51
69420;BMP280;56612;52.030;113.524;2023-02-15T12:14:16;93424.16;;;-6.60
69420;BMP280;56612;52.030;113.524;2023-02-15T12:17:26;93435.09;;;-6.70
69420;BMP280;56612;52.030;113.524;2023-02-15T12:20:32;93432.47;;;-6.77
69420;BMP280;56612;52.030;113.524;2023-02-15T12:23:51;93423.63;;;-6.82
69420;BMP280;56612;52.030;113.524;2023-02-15T12:27:05;93434.69;;;-6.97
69420;BMP280;56612;52.030;113.524;2023-02-15T12:30:23;93430.31;;;-7.02
69420;BMP280;56612;52.030;113.524;2023-02-15T12:33:43;93429.63;;;-7.10
69420;BMP280;56612;52.030;113.524;2023-02-15T12:36:52;93424.41;;;-7.10
69420;BMP280;56612;52.030;113.524;2023-02-15T12:40:20;93435.50;;;-7.02
69420;BMP280;56612;52.030;113.524;2023-02-15T12:43:38;93431.53;;;-7.03
69420;BMP280;56612;52.030;113.524;2023-02-15T12:50:23;93435.97;;;-7.26
69420;BMP280;56612;52.030;113.524;2023-02-15T12:53:36;93432.28;;;-7.38
69420;BMP280;56612;52.030;113.524;2023-02-15T12:56:39;93428.75;;;-7.49
69420;BMP280;56612;52.030;113.524;2023-02-15T12:59:49;93430.59;;;-7.64
69420;BMP280;56612;52.030;113.524;2023-02-15T13:02:55;93432.59;;;-7.78
69420;BMP280;56612;52.030;113.524;2023-02-15T13:06:01;93434.31;;;-7.81
69420;BMP280;56612;52.030;113.524;2023-02-15T13:12:29;93437.66;;;-7.93
69420;BMP280;56612;52.030;113.524;2023-02-15T13:15:40;93436.97;;;-8.15
69420;BMP280;56612;52.030;113.524;2023-02-15T13:18:46;93433.69;;;-8.36
69420;BMP280;56612;52.030;113.524;2023-02-15T13:21:55;93442.69;;;-8.37
69420;BMP280;56612;52.030;113.524;2023-02-15T13:25:04;93443.34;;;-8.44
69420;BMP280;56612;52.030;113.524;2023-02-15T13:28:16;93437.91;;;-8.54
69420;BMP280;56612;52.030;113.524;2023-02-15T13:31:25;93445.78;;;-8.60
69420;BMP280;56612;52.030;113.524;2023-02-15T13:34:36;93432.31;;;-8.58
69420;BMP280;56612;52.030;113.524;2023-02-15T13:52:21;93437.03;;;-8.70
69420;BMP280;56612;52.030;113.524;2023-02-15T13:55:47;93432.50;;;-8.90
69420;BMP280;56612;52.030;113.524;2023-02-15T14:05:21;93429.59;;;-8.87
69420;BMP280;56612;52.030;113.524;2023-02-15T14:12:11;93428.16;;;-8.95
69420;BMP280;56612;52.030;113.524;2023-02-15T14:22:00;93428.78;;;-9.02
69420;BMP280;56612;52.030;113.524;2023-02-15T14:28:25;93424.81;;;-9.30
69420;BMP280;56612;52.030;113.524;2023-02-15T14:31:41;93415.59;;;-9.39
69420;BMP280;56612;52.030;113.524;2023-02-15T14:34:55;93417.28;;;-9.41
69420;BMP280;56612;52.030;113.524;2023-02-15T14:48:53;93404.25;;;-9.89
69420;BMP280;56612;52.030;113.524;2023-02-15T14:51:58;93408.03;;;-9.90
69420;BMP280;56612;52.030;113.524;2023-02-15T14:55:02;93396.41;;;-9.83
69420;BMP280;56612;52.030;113.524;2023-02-15T14:58:12;93401.34;;;-9.72
69420;BMP280;56612;52.030;113.524;2023-02-15T15:01:33;93403.44;;;-9.84
69420;BMP280;56612;52.030;113.524;2023-02-15T15:04:41;93404.66;;;-9.85
69420;BMP280;56612;52.030;113.524;2023-02-15T15:07:47;93397.56;;;-9.97
69420;BMP280;56612;52.030;113.524;2023-02-15T15:10:52;93403.66;;;-9.95
69420;BMP280;56612;52.030;113.524;2023-02-15T15:13:59;93405.41;;;-10.03
69420;BMP280;56612;52.030;113.524;2023-02-15T15:17:05;93404.69;;;-10.17
69420;BMP280;56612;52.030;113.524;2023-02-15T15:26:30;93402.81;;;-10.16
69420;BMP280;56612;52.030;113.524;2023-02-15T15:29:40;93400.66;;;-10.44
69420;BMP280;56612;52.030;113.524;2023-02-15T15:32:53;93398.72;;;-10.38
69420;BMP280;56612;52.030;113.524;2023-02-15T15:39:45;93404.72;;;-10.49
69420;BMP280;56612;52.030;113.524;2023-02-15T15:46:33;93401.44;;;-10.49
69420;BMP280;56612;52.030;113.524;2023-02-15T15:49:40;93411.63;;;-10.57
69420;BMP280;56612;52.030;113.524;2023-02-15T15:52:50;93401.31;;;-10.57
69420;BMP280;56612;52.030;113.524;2023-02-15T15:56:06;93403.34;;;-10.69
69420;BMP280;56612;52.030;113.524;2023-02-15T15:59:18;93396.06;;;-10.51
69420;BMP280;56612;52.030;113.524;2023-02-15T16:02:22;93389.41;;;-10.60
69420;BMP280;56612;52.030;113.524;2023-02-15T16:05:26;93392.50;;;-10.48
69420;BMP280;56612;52.030;113.524;2023-02-15T16:08:30;93392.16;;;-10.26
69420;BMP280;56612;52.030;113.524;2023-02-15T16:11:35;93381.56;;;-10.09
69420;BMP280;56612;52.030;113.524;2023-02-15T16:14:42;93390.81;;;-10.00
69420;BMP280;56612;52.030;113.524;2023-02-15T16:17:53;93387.38;;;-9.76
69420;BMP280;56612;52.030;113.524;2023-02-15T16:21:00;93381.28;;;-9.66
69420;BMP280;56612;52.030;113.524;2023-02-15T16:24:31;93388.53;;;-9.64
69420;BMP280;56612;52.030;113.524;2023-02-15T16:27:40;93385.03;;;-9.53
69420;BMP280;56612;52.030;113.524;2023-02-15T16:30:58;93362.09;;;-9.57
69420;BMP280;56612;52.030;113.524;2023-02-15T16:34:16;93375.00;;;-9.44
69420;BMP280;56612;52.030;113.524;2023-02-15T16:37:22;93373.31;;;-9.41
69420;BMP280;56612;52.030;113.524;2023-02-15T16:40:48;93369.09;;;-9.31
69420;BMP280;56612;52.030;113.524;2023-02-15T16:43:57;93377.25;;;-9.27
69420;BMP280;56612;52.030;113.524;2023-02-15T16:47:02;93366.97;;;-9.19
69420;BMP280;56612;52.030;113.524;2023-02-15T16:50:06;93366.94;;;-9.06
69420;BMP280;56612;52.030;113.524;2023-02-15T16:53:23;93367.00;;;-8.98
69420;BMP280;56612;52.030;113.524;2023-02-15T16:56:29;93376.88;;;-8.97
69420;BMP280;56612;52.030;113.524;2023-02-15T16:59:39;93367.44;;;-9.08
69420;BMP280;56612;52.030;113.524;2023-02-15T17:06:34;93375.72;;;-9.09
69420;BMP280;56612;52.030;113.524;2023-02-15T17:09:49;93376.28;;;-9.37
69420;BMP280;56612;52.030;113.524;2023-02-15T17:12:54;93369.34;;;-9.55
69420;BMP280;56612;52.030;113.524;2023-02-15T17:19:13;93368.84;;;-9.54
69420;BMP280;56612;52.030;113.524;2023-02-15T17:22:26;93359.69;;;-9.55
69420;BMP280;56612;52.030;113.524;2023-02-15T17:25:38;93358.19;;;-9.50
69420;BMP280;56612;52.030;113.524;2023-02-15T17:28:51;93361.47;;;-9.37
69420;BMP280;56612;52.030;113.524;2023-02-15T17:31:56;93364.22;;;-9.35
69420;BMP280;56612;52.030;113.524;2023-02-15T17:35:23;93363.53;;;-9.35
69420;BMP280;56612;52.030;113.524;2023-02-15T17:38:29;93366.00;;;-9.29
69420;BMP280;56612;52.030;113.524;2023-02-15T17:41:35;93368.56;;;-9.16
69420;BMP280;56612;52.030;113.524;2023-02-15T17:44:40;93369.78;;;-9.17
69420;BMP280;56612;52.030;113.524;2023-02-15T17:47:46;93366.28;;;-9.20
69420;BMP280;56612;52.030;113.524;2023-02-15T17:50:50;93362.44;;;-9.26
69420;BMP280;56612;52.030;113.524;2023-02-15T17:53:53;93361.91;;;-9.25
69420;BMP280;56612;52.030;113.524;2023-02-15T17:57:15;93356.75;;;-9.25
69420;BMP280;56612;52.030;113.524;2023-02-15T18:00:19;93358.53;;;-9.20
69420;BMP280;56612;52.030;113.524;2023-02-15T18:03:48;93358.94;;;-9.29
69420;BMP280;56612;52.030;113.524;2023-02-15T18:07:12;93360.66;;;-9.32
69420;BMP280;56612;52.030;113.524;2023-02-15T18:10:34;93350.94;;;-9.39
69420;BMP280;56612;52.030;113.524;2023-02-15T18:13:57;93357.84;;;-9.34
69420;BMP280;56612;52.030;113.524;2023-02-15T18:17:04;93359.16;;;-9.27
69420;BMP280;56612;52.030;113.524;2023-02-15T18:20:30;93361.81;;;-9.19
69420;BMP280;56612;52.030;113.524;2023-02-15T18:23:34;93349.50;;;-9.26
69420;BMP280;56612;52.030;113.524;2023-02-15T18:26:38;93358.84;;;-9.23
69420;BMP280;56612;52.030;113.524;2023-02-15T18:29:42;93347.59;;;-9.26
69420;BMP280;56612;52.030;113.524;2023-02-15T18:32:47;93357.13;;;-9.21
69420;BMP280;56612;52.030;113.524;2023-02-15T18:35:52;93353.88;;;-9.21
69420;BMP280;56612;52.030;113.524;2023-02-15T18:38:56;93355.84;;;-9.14
69420;BMP280;56612;52.030;113.524;2023-02-15T18:42:00;93357.53;;;-9.17
69420;BMP280;56612;52.030;113.524;2023-02-15T18:45:25;93359.50;;;-9.10
69420;BMP280;56612;52.030;113.524;2023-02-15T18:48:31;93353.25;;;-9.14
69420;BMP280;56612;52.030;113.524;2023-02-15T18:51:35;93346.88;;;-9.13
69420;BMP280;56612;52.030;113.524;2023-02-15T18:54:43;93352.06;;;-9.13
69420;BMP280;56612;52.030;113.524;2023-02-15T18:57:49;93348.63;;;-9.08
69420;BMP280;56612;52.030;113.524;2023-02-15T19:00:55;93351.91;;;-9.08
69420;BMP280;56612;52.030;113.524;2023-02-15T19:04:01;93359.31;;;-9.12
69420;BMP280;56612;52.030;113.524;2023-02-15T19:07:08;93350.47;;;-9.16
69420;BMP280;56612;52.030;113.524;2023-02-15T19:10:17;93359.81;;;-9.13
69420;BMP280;56612;52.030;113.524;2023-02-15T19:13:22;93358.34;;;-9.22
69420;BMP280;56612;52.030;113.524;2023-02-15T19:16:29;93356.44;;;-9.21
69420;BMP280;56612;52.030;113.524;2023-02-15T19:19:33;93358.56;;;-9.33
69420;BMP280;56612;52.030;113.524;2023-02-15T19:22:37;93352.91;;;-9.45
69420;BMP280;56612;52.030;113.524;2023-02-15T19:25:41;93366.84;;;-9.48
69420;BMP280;56612;52.030;113.524;2023-02-15T19:28:44;93368.06;;;-9.49
69420;BMP280;56612;52.030;113.524;2023-02-15T19:31:48;93357.78;;;-9.54
69420;BMP280;56612;52.030;113.524;2023-02-15T19:34:52;93361.59;;;-9.55
69420;BMP280;56612;52.030;113.524;2023-02-15T19:37:57;93365.75;;;-9.52
69420;BMP280;56612;52.030;113.524;2023-02-15T19:41:06;93364.69;;;-9.57
69420;BMP280;56612;52.030;113.524;2023-02-15T19:44:10;93363.28;;;-9.71
69420;BMP280;56612;52.030;113.524;2023-02-15T19:47:15;93350.47;;;-9.77
69420;BMP280;56612;52.030;113.524;2023-02-15T19:50:28;93360.19;;;-9.70
69420;BMP280;56612;52.030;113.524;2023-02-15T19:53:33;93350.34;;;-9.71
69420;BMP280;56612;52.030;113.524;2023-02-15T19:56:37;93356.84;;;-9.78
69420;BMP280;56612;52.030;113.524;2023-02-15T19:59:41;93354.63;;;-9.74
69420;BMP280;56612;52.030;113.524;2023-02-15T20:02:45;93347.16;;;-9.64
69420;BMP280;56612;52.030;113.524;2023-02-15T20:05:49;93352.16;;;-9.66
69420;BMP280;56612;52.030;113.524;2023-02-15T20:08:53;93345.19;;;-9.71
69420;BMP280;56612;52.030;113.524;2023-02-15T20:11:58;93344.41;;;-9.66
69420;BMP280;56612;52.030;113.524;2023-02-15T20:15:22;93346.09;;;-9.69
69420;BMP280;56612;52.030;113.524;2023-02-15T20:18:26;93340.31;;;-9.75